Time;durP1;ratioP1;P1;durP2;ratioP2;P2;SDS_P1;SDS_P2;PMS_P1;PMS_P2;Temp;Humidity;BMP_temperature;BMP_pressure;BME280_temperature;BME280_humidity;BME280_pressure;Samples;Min_cycle;Max_cycle;Signal;HPM_P1;HPM_P2
2021/08/23 00:00:28;;;;;;;4.43;3.20;;;18.00;99.90;;;;;;4320282;33;20216;-79
2021/08/23 00:02:55;;;;;;;5.10;3.30;;;18.00;99.90;;;;;;4320059;33;20169;-78
2021/08/23 00:05:21;;;;;;;5.10;3.37;;;18.00;99.90;;;;;;4320890;33;20153;-78
2021/08/23 00:07:48;;;;;;;4.03;2.80;;;18.00;99.90;;;;;;4321572;33;20130;-78
2021/08/23 00:10:16;;;;;;;4.70;3.03;;;18.00;99.90;;;;;;4319978;33;20166;-79
2021/08/23 00:12:42;;;;;;;4.10;3.33;;;18.00;99.90;;;;;;4319979;33;20179;-79
2021/08/23 00:15:10;;;;;;;3.83;3.10;;;18.00;99.90;;;;;;4320117;33;20126;-79
2021/08/23 00:17:36;;;;;;;3.87;3.10;;;18.00;99.90;;;;;;4319735;33;20126;-79
2021/08/23 00:20:04;;;;;;;5.17;3.30;;;17.90;99.90;;;;;;4321173;33;20384;-78
2021/08/23 00:22:33;;;;;;;4.33;3.30;;;17.90;99.90;;;;;;4319704;33;20159;-79
2021/08/23 00:25:00;;;;;;;4.70;3.20;;;17.90;99.90;;;;;;4319846;33;20444;-79
2021/08/23 00:27:28;;;;;;;4.50;3.10;;;17.80;99.90;;;;;;4320824;33;20142;-78
2021/08/23 00:29:56;;;;;;;5.80;3.70;;;17.80;99.90;;;;;;4320188;33;20142;-78
2021/08/23 00:32:23;;;;;;;5.47;3.40;;;17.80;99.90;;;;;;4321256;33;20156;-78
2021/08/23 00:34:49;;;;;;;5.43;3.37;;;17.80;99.90;;;;;;4320590;33;20146;-78
2021/08/23 00:37:16;;;;;;;5.10;3.57;;;17.80;99.90;;;;;;4318966;33;20207;-78
2021/08/23 00:39:43;;;;;;;5.70;3.53;;;17.80;99.90;;;;;;4319890;33;20204;-78
2021/08/23 00:42:10;;;;;;;7.27;3.30;;;17.70;99.90;;;;;;4319696;33;20148;-78
2021/08/23 00:44:38;;;;;;;6.00;3.13;;;17.80;99.90;;;;;;4319735;33;20125;-78
2021/08/23 00:47:06;;;;;;;4.70;3.40;;;17.80;99.90;;;;;;4319755;33;20215;-78
2021/08/23 00:49:33;;;;;;;5.97;3.40;;;17.80;99.90;;;;;;4320689;33;20164;-78
2021/08/23 00:52:01;;;;;;;5.63;4.10;;;17.80;99.90;;;;;;4320680;33;20129;-77
2021/08/23 00:54:28;;;;;;;4.47;3.37;;;17.70;99.90;;;;;;4320586;33;20137;-78
2021/08/23 00:56:55;;;;;;;4.63;3.43;;;17.70;99.90;;;;;;4319069;33;20129;-78
2021/08/23 00:59:24;;;;;;;6.30;3.40;;;17.70;99.90;;;;;;4320838;33;20489;-78
2021/08/23 01:02:28;;;;;;;5.20;3.70;;;17.60;99.90;;;;;;4320273;33;20130;-78
2021/08/23 01:05:08;;;;;;;5.10;3.57;;;17.60;99.90;;;;;;4307794;33;20232;-78
2021/08/23 01:07:57;;;;;;;4.93;3.70;;;17.50;99.90;;;;;;4319298;33;20165;-78
2021/08/23 01:10:37;;;;;;;5.47;3.40;;;17.50;99.90;;;;;;4319183;33;20173;-78
2021/08/23 01:13:07;;;;;;;5.23;3.63;;;17.40;99.90;;;;;;4320628;33;20129;-78
2021/08/23 01:15:37;;;;;;;4.43;3.50;;;17.40;99.90;;;;;;4320496;33;20236;-78
2021/08/23 01:18:04;;;;;;;7.20;3.50;;;17.40;99.90;;;;;;4319414;33;20444;-78
2021/08/23 01:20:38;;;;;;;4.40;3.20;;;17.30;99.90;;;;;;4319983;33;20480;-78
2021/08/23 01:23:07;;;;;;;5.00;3.23;;;17.30;99.90;;;;;;4318817;33;20594;-77
2021/08/23 01:25:36;;;;;;;8.90;3.60;;;17.30;99.90;;;;;;4320405;33;20142;-77
2021/08/23 01:28:08;;;;;;;4.63;3.40;;;17.20;99.90;;;;;;4320143;33;20187;-77
2021/08/23 01:31:06;;;;;;;6.17;3.67;;;17.20;99.90;;;;;;4320489;33;20196;-77
2021/08/23 01:33:33;;;;;;;3.70;3.17;;;17.10;99.90;;;;;;4320052;33;20200;-77
2021/08/23 01:36:01;;;;;;;7.87;3.60;;;17.10;99.90;;;;;;4318944;33;20212;-77
2021/08/23 01:38:28;;;;;;;5.93;3.20;;;17.10;99.90;;;;;;4319671;33;20449;-77
2021/08/23 01:40:59;;;;;;;4.73;3.27;;;17.10;99.90;;;;;;4319752;33;20169;-77
2021/08/23 01:43:26;;;;;;;4.17;3.10;;;17.10;99.90;;;;;;4320381;33;20211;-77
2021/08/23 01:45:53;;;;;;;4.53;3.27;;;17.00;99.90;;;;;;4318942;33;20195;-77
2021/08/23 01:48:21;;;;;;;3.70;3.00;;;17.00;99.90;;;;;;4318806;33;20129;-77
2021/08/23 01:50:47;;;;;;;4.27;3.27;;;17.00;99.90;;;;;;4318736;33;20200;-77
2021/08/23 01:53:16;;;;;;;4.73;3.47;;;17.00;99.90;;;;;;4318841;33;20410;-77
2021/08/23 01:55:43;;;;;;;4.00;3.27;;;17.00;99.90;;;;;;4320251;33;20129;-78
2021/08/23 01:58:10;;;;;;;3.93;3.10;;;16.90;99.90;;;;;;4318755;33;20176;-77
2021/08/23 02:00:37;;;;;;;3.87;2.90;;;17.00;99.90;;;;;;4320132;33;20431;-78
2021/08/23 02:03:04;;;;;;;5.50;3.10;;;17.00;99.90;;;;;;4319695;33;20188;-77
2021/08/23 02:05:31;;;;;;;4.03;3.13;;;17.00;99.90;;;;;;4319341;33;20215;-78
2021/08/23 02:07:58;;;;;;;5.17;2.90;;;16.90;99.90;;;;;;4320135;33;20188;-77
2021/08/23 02:10:26;;;;;;;4.07;3.00;;;16.90;99.90;;;;;;4318235;33;20154;-78
2021/08/23 02:12:53;;;;;;;3.30;2.70;;;17.00;99.90;;;;;;4321231;33;20129;-78
2021/08/23 02:15:19;;;;;;;3.77;3.07;;;16.90;99.90;;;;;;4321587;33;20207;-78
2021/08/23 02:17:46;;;;;;;4.10;3.20;;;17.00;99.90;;;;;;4322410;33;20130;-78
2021/08/23 02:20:13;;;;;;;3.87;2.80;;;17.00;99.90;;;;;;4322524;33;20470;-78
2021/08/23 02:22:41;;;;;;;4.00;3.17;;;17.00;99.90;;;;;;4323226;33;20184;-78
2021/08/23 02:25:09;;;;;;;4.83;3.00;;;17.00;99.90;;;;;;4322542;33;20224;-78
2021/08/23 02:27:36;;;;;;;4.80;2.90;;;17.00;99.90;;;;;;4322709;33;20155;-79
2021/08/23 02:30:03;;;;;;;5.00;3.20;;;17.00;99.90;;;;;;4321128;33;20196;-78
2021/08/23 02:32:33;;;;;;;4.77;3.00;;;17.00;99.90;;;;;;4322928;33;20179;-79
2021/08/23 02:35:00;;;;;;;5.63;3.10;;;17.00;99.90;;;;;;4322250;33;20488;-78
2021/08/23 02:37:27;;;;;;;4.60;2.83;;;17.00;99.90;;;;;;4321601;33;20522;-78
2021/08/23 02:39:54;;;;;;;4.90;3.00;;;16.90;99.90;;;;;;4322378;33;20126;-78
2021/08/23 02:42:20;;;;;;;4.53;2.90;;;16.90;99.90;;;;;;4322691;33;20133;-77
2021/08/23 02:44:47;;;;;;;3.70;2.80;;;16.90;99.90;;;;;;4321305;33;20125;-77
2021/08/23 02:47:14;;;;;;;4.13;2.90;;;16.90;99.90;;;;;;4321091;33;20183;-77
2021/08/23 02:49:41;;;;;;;6.00;3.10;;;16.90;99.90;;;;;;4322389;33;20223;-78
2021/08/23 02:52:08;;;;;;;4.47;2.90;;;17.00;99.90;;;;;;4321034;33;20216;-79
2021/08/23 02:54:35;;;;;;;3.80;3.10;;;16.90;99.90;;;;;;4321201;33;20468;-79
2021/08/23 02:57:01;;;;;;;5.83;2.80;;;16.90;99.90;;;;;;4321336;33;20134;-79
2021/08/23 02:59:28;;;;;;;3.63;3.00;;;16.90;99.90;;;;;;4320364;33;20151;-79
2021/08/23 03:01:55;;;;;;;4.17;3.00;;;16.90;99.90;;;;;;4321965;33;20206;-78
2021/08/23 03:04:22;;;;;;;5.00;3.00;;;16.90;99.90;;;;;;4321894;33;20149;-78
2021/08/23 03:06:49;;;;;;;3.63;3.03;;;16.90;99.90;;;;;;4320918;33;20219;-79
2021/08/23 03:09:15;;;;;;;4.50;3.10;;;16.90;99.90;;;;;;4320698;33;20161;-79
2021/08/23 03:11:42;;;;;;;3.90;3.20;;;16.90;99.90;;;;;;4320861;33;20153;-79
2021/08/23 03:14:09;;;;;;;4.23;3.00;;;16.80;99.90;;;;;;4320670;33;20260;-79
2021/08/23 03:16:36;;;;;;;4.07;3.00;;;16.80;99.90;;;;;;4322374;33;20169;-79
2021/08/23 03:19:03;;;;;;;3.60;2.90;;;16.80;99.90;;;;;;4320764;33;20125;-79
2021/08/23 03:21:29;;;;;;;5.80;3.27;;;16.70;99.90;;;;;;4321574;33;20149;-78
2021/08/23 03:23:56;;;;;;;4.57;3.13;;;16.70;99.90;;;;;;4320333;33;20141;-77
2021/08/23 03:26:23;;;;;;;4.10;3.03;;;16.60;99.90;;;;;;4321422;33;20122;-79
2021/08/23 03:28:51;;;;;;;4.87;3.50;;;16.60;99.90;;;;;;4322278;33;20460;-80
2021/08/23 03:31:18;;;;;;;4.57;3.10;;;16.60;99.90;;;;;;4319991;33;20137;-80
2021/08/23 03:33:46;;;;;;;5.13;3.10;;;16.60;99.90;;;;;;4322187;33;20129;-79
2021/08/23 03:36:12;;;;;;;4.23;3.00;;;16.50;99.90;;;;;;4319065;33;20161;-80
2021/08/23 03:38:41;;;;;;;4.93;3.10;;;16.50;99.90;;;;;;4320723;33;20220;-79
2021/08/23 03:41:12;;;;;;;6.73;3.20;;;16.50;99.90;;;;;;4320898;33;20125;-79
2021/08/23 03:43:38;;;;;;;4.63;3.20;;;16.50;99.90;;;;;;4322136;33;20226;-79
2021/08/23 03:46:05;;;;;;;4.63;3.10;;;16.50;99.90;;;;;;4322261;33;20165;-80
2021/08/23 03:48:32;;;;;;;4.83;3.47;;;16.50;99.90;;;;;;4321588;33;20133;-80
2021/08/23 03:50:59;;;;;;;4.00;3.20;;;16.50;99.90;;;;;;4320453;33;20184;-79
2021/08/23 03:53:26;;;;;;;4.87;3.47;;;16.40;99.90;;;;;;4319797;33;20231;-79
2021/08/23 03:55:53;;;;;;;6.50;3.70;;;16.40;99.90;;;;;;4308319;33;20464;-79
2021/08/23 03:58:19;;;;;;;5.27;3.23;;;16.50;99.90;;;;;;4320054;33;20447;-79
2021/08/23 04:00:46;;;;;;;6.13;3.53;;;16.50;99.90;;;;;;4321615;33;20129;-79
2021/08/23 04:03:13;;;;;;;6.80;3.60;;;16.50;99.90;;;;;;4321519;33;20129;-78
2021/08/23 04:05:42;;;;;;;5.50;3.60;;;16.50;99.90;;;;;;4321520;33;20165;-78
2021/08/23 04:08:09;;;;;;;4.37;3.30;;;16.50;99.90;;;;;;4321153;33;20212;-78
2021/08/23 04:10:35;;;;;;;3.90;3.30;;;16.50;99.90;;;;;;4319948;33;20173;-78
2021/08/23 04:13:02;;;;;;;5.20;3.30;;;16.60;99.90;;;;;;4320920;33;20210;-79
2021/08/23 04:15:29;;;;;;;4.43;3.43;;;16.60;99.90;;;;;;4319836;33;20191;-78
2021/08/23 04:17:56;;;;;;;5.10;3.60;;;16.60;99.90;;;;;;4321536;33;20545;-78
2021/08/23 04:20:23;;;;;;;4.77;3.63;;;16.60;99.90;;;;;;4320851;33;20216;-78
2021/08/23 04:22:49;;;;;;;4.70;3.27;;;16.60;99.90;;;;;;4319615;33;20452;-78
2021/08/23 04:25:16;;;;;;;4.20;3.40;;;16.60;99.90;;;;;;4320975;33;20184;-78
2021/08/23 04:27:43;;;;;;;4.83;3.13;;;16.60;99.90;;;;;;4320796;33;20141;-78
2021/08/23 04:30:10;;;;;;;4.77;3.10;;;16.60;99.90;;;;;;4321355;33;20442;-79
2021/08/23 04:32:37;;;;;;;6.17;3.33;;;16.70;99.90;;;;;;4319396;33;20541;-79
2021/08/23 04:35:04;;;;;;;6.53;3.60;;;16.70;99.90;;;;;;4320564;33;20407;-80
2021/08/23 04:37:31;;;;;;;4.13;3.23;;;16.70;99.90;;;;;;4320031;33;20453;-78
2021/08/23 04:39:58;;;;;;;4.77;3.40;;;16.70;99.90;;;;;;4321003;33;20180;-78
2021/08/23 04:42:24;;;;;;;4.70;3.27;;;16.70;99.90;;;;;;4321143;33;20138;-79
2021/08/23 04:44:51;;;;;;;3.90;3.30;;;16.70;99.90;;;;;;4320355;33;20133;-78
2021/08/23 04:47:18;;;;;;;7.07;3.40;;;16.70;99.90;;;;;;4319812;33;20605;-78
2021/08/23 04:49:44;;;;;;;7.53;3.43;;;16.70;99.90;;;;;;4319520;33;20200;-77
2021/08/23 04:52:11;;;;;;;4.30;3.33;;;16.70;99.90;;;;;;4319028;33;20176;-78
2021/08/23 04:54:38;;;;;;;4.67;3.10;;;16.70;99.90;;;;;;4319259;33;20130;-79
2021/08/23 04:57:05;;;;;;;5.00;3.40;;;16.70;99.90;;;;;;4320792;33;20122;-79
2021/08/23 04:59:31;;;;;;;5.77;3.57;;;16.70;99.90;;;;;;4320065;33;20183;-79
2021/08/23 05:01:58;;;;;;;6.00;3.50;;;16.80;99.90;;;;;;4320016;33;20545;-78
2021/08/23 05:04:25;;;;;;;6.00;3.30;;;16.80;99.90;;;;;;4318903;33;20150;-78
2021/08/23 05:06:52;;;;;;;5.07;3.43;;;16.90;99.90;;;;;;4318977;33;20191;-79
2021/08/23 05:09:19;;;;;;;5.57;3.40;;;16.90;99.90;;;;;;4320496;33;20238;-79
2021/08/23 05:11:46;;;;;;;5.27;3.80;;;16.90;99.90;;;;;;4306102;33;20200;-78
2021/08/23 05:14:12;;;;;;;5.67;3.30;;;17.00;99.90;;;;;;4320839;33;20144;-79
2021/08/23 05:16:39;;;;;;;6.07;3.50;;;17.00;99.90;;;;;;4320062;33;20180;-79
2021/08/23 05:19:07;;;;;;;6.90;3.30;;;17.00;99.90;;;;;;4319994;33;20129;-78
2021/08/23 05:21:33;;;;;;;6.03;3.70;;;17.00;99.90;;;;;;4318891;33;20138;-79
2021/08/23 05:24:00;;;;;;;4.90;3.53;;;17.10;99.90;;;;;;4320567;33;20129;-79
2021/08/23 05:26:27;;;;;;;6.63;3.30;;;17.10;99.90;;;;;;4320518;33;20208;-79
2021/08/23 05:28:54;;;;;;;5.27;3.43;;;17.10;99.90;;;;;;4320625;33;20159;-79
2021/08/23 05:31:22;;;;;;;5.97;3.40;;;17.10;99.90;;;;;;4318342;33;20145;-80
2021/08/23 05:33:50;;;;;;;4.90;3.10;;;17.20;99.90;;;;;;4318852;33;20138;-79
2021/08/23 05:36:16;;;;;;;5.63;3.73;;;17.20;99.90;;;;;;4318950;33;20403;-80
2021/08/23 05:38:43;;;;;;;5.13;3.53;;;17.20;99.90;;;;;;4319032;33;20163;-79
2021/08/23 05:41:10;;;;;;;5.27;3.40;;;17.30;99.90;;;;;;4319678;33;20142;-79
2021/08/23 05:43:37;;;;;;;5.70;3.60;;;17.40;99.90;;;;;;4320467;33;20164;-79
2021/08/23 05:46:03;;;;;;;4.57;3.50;;;17.30;99.90;;;;;;4319658;33;20188;-80
2021/08/23 05:48:32;;;;;;;4.73;3.40;;;17.40;99.90;;;;;;4320549;33;20159;-80
2021/08/23 05:50:59;;;;;;;5.37;3.40;;;17.40;99.90;;;;;;4320368;33;20205;-80
2021/08/23 05:53:26;;;;;;;5.87;3.73;;;17.40;99.90;;;;;;4318302;33;20141;-79
2021/08/23 05:55:53;;;;;;;4.70;3.37;;;17.50;99.90;;;;;;4318423;33;20185;-79
2021/08/23 05:58:19;;;;;;;6.33;3.60;;;17.40;99.90;;;;;;4319317;33;20137;-80
2021/08/23 06:00:46;;;;;;;4.57;3.70;;;17.50;99.90;;;;;;4319282;33;20204;-79
2021/08/23 06:03:13;;;;;;;5.50;3.50;;;17.50;99.90;;;;;;4318753;33;20176;-80
2021/08/23 06:05:40;;;;;;;4.70;3.50;;;17.60;99.90;;;;;;4319075;33;20519;-80
2021/08/23 06:08:07;;;;;;;5.77;3.90;;;17.60;99.90;;;;;;4318594;33;20137;-79
2021/08/23 06:10:33;;;;;;;6.03;3.50;;;17.70;99.90;;;;;;4320130;33;20138;-80
2021/08/23 06:13:00;;;;;;;5.20;3.60;;;17.70;99.90;;;;;;4319197;33;20133;-79
2021/08/23 06:15:27;;;;;;;6.13;3.80;;;17.70;99.90;;;;;;4318839;33;20173;-79
2021/08/23 06:17:54;;;;;;;6.97;3.50;;;17.70;99.90;;;;;;4320922;33;20216;-80
2021/08/23 06:20:22;;;;;;;6.37;3.83;;;17.80;99.90;;;;;;4319259;33;20444;-79
2021/08/23 06:22:50;;;;;;;6.40;3.37;;;17.80;99.90;;;;;;4320211;33;20188;-79
2021/08/23 06:25:20;;;;;;;8.97;4.10;;;17.80;99.90;;;;;;4319950;33;20160;-78
2021/08/23 06:27:47;;;;;;;7.57;4.10;;;17.80;99.90;;;;;;4318612;33;20225;-78
2021/08/23 06:30:14;;;;;;;9.20;4.10;;;17.80;99.90;;;;;;4319740;33;20122;-77
2021/08/23 06:32:41;;;;;;;9.17;4.07;;;17.90;99.90;;;;;;4318438;33;20145;-78
2021/08/23 06:35:08;;;;;;;7.33;3.80;;;17.90;99.90;;;;;;4319287;33;20161;-78
2021/08/23 06:37:36;;;;;;;5.80;3.83;;;18.00;99.90;;;;;;4319455;33;20163;-78
2021/08/23 06:40:08;;;;;;;6.00;3.97;;;18.00;99.90;;;;;;4320195;33;20369;-77
2021/08/23 06:42:38;;;;;;;6.00;3.87;;;18.10;99.90;;;;;;4319728;33;20193;-78
2021/08/23 06:45:06;;;;;;;7.53;4.33;;;18.10;99.90;;;;;;4320068;33;20125;-78
2021/08/23 06:47:33;;;;;;;6.27;4.37;;;18.10;99.90;;;;;;4319607;33;20159;-78
2021/08/23 06:50:00;;;;;;;7.03;4.17;;;18.20;99.90;;;;;;4319856;33;20472;-78
2021/08/23 06:52:27;;;;;;;6.73;4.40;;;18.10;99.90;;;;;;4319738;33;20239;-78
2021/08/23 06:54:54;;;;;;;8.37;4.43;;;18.10;99.90;;;;;;4319965;33;20130;-78
2021/08/23 06:57:21;;;;;;;7.53;4.07;;;18.20;99.90;;;;;;4319155;33;20212;-79
2021/08/23 06:59:49;;;;;;;6.40;4.30;;;18.30;99.90;;;;;;4321382;33;20448;-78
2021/08/23 07:02:15;;;;;;;5.60;4.00;;;18.30;99.90;;;;;;4320352;33;20137;-78
2021/08/23 07:04:44;;;;;;;6.97;4.23;;;18.40;99.90;;;;;;4320998;33;20126;-78
2021/08/23 07:07:11;;;;;;;7.13;3.87;;;18.30;99.90;;;;;;4320153;33;20149;-78
2021/08/23 07:09:38;;;;;;;8.80;4.37;;;18.30;99.90;;;;;;4320424;33;20175;-77
2021/08/23 07:12:05;;;;;;;7.67;4.07;;;18.30;99.90;;;;;;4321938;33;20196;-77
2021/08/23 07:14:32;;;;;;;5.27;4.10;;;18.40;99.90;;;;;;4322555;33;20126;-77
2021/08/23 07:16:58;;;;;;;6.63;4.33;;;18.40;99.90;;;;;;4321048;33;20129;-76
2021/08/23 07:19:25;;;;;;;11.80;4.60;;;18.50;99.90;;;;;;4320340;33;20126;-78
2021/08/23 07:21:52;;;;;;;8.57;4.60;;;18.60;99.90;;;;;;4321857;33;20445;-78
2021/08/23 07:24:19;;;;;;;9.60;4.20;;;18.60;99.90;;;;;;4321328;33;20153;-77
2021/08/23 07:26:46;;;;;;;7.97;4.57;;;18.70;99.90;;;;;;4322008;33;20213;-77
2021/08/23 07:29:13;;;;;;;7.03;4.40;;;18.80;99.90;;;;;;4320373;33;20460;-77
2021/08/23 07:31:41;;;;;;;7.73;4.57;;;18.90;99.90;;;;;;4321699;33;20538;-75
2021/08/23 07:34:08;;;;;;;8.20;4.40;;;18.90;99.90;;;;;;4321492;33;20429;-76
2021/08/23 07:36:34;;;;;;;10.27;5.00;;;19.00;99.90;;;;;;4320340;33;20239;-75
2021/08/23 07:39:02;;;;;;;7.90;4.43;;;19.00;99.90;;;;;;4322073;33;20130;-76
2021/08/23 07:41:30;;;;;;;8.67;4.50;;;19.10;99.90;;;;;;4319940;33;20188;-76
2021/08/23 07:43:56;;;;;;;9.23;4.47;;;19.10;99.90;;;;;;4322164;33;20134;-76
2021/08/23 07:46:23;;;;;;;6.30;4.93;;;19.10;99.90;;;;;;4320831;33;20133;-76
2021/08/23 07:48:50;;;;;;;7.90;4.70;;;19.20;99.90;;;;;;4321569;33;20153;-76
2021/08/23 07:51:17;;;;;;;12.53;4.60;;;19.20;99.90;;;;;;4321302;33;20141;-76
2021/08/23 07:53:43;;;;;;;8.37;4.73;;;19.30;99.90;;;;;;4319132;33;20491;-75
2021/08/23 07:56:11;;;;;;;6.63;4.30;;;19.30;99.90;;;;;;4321854;33;20129;-75
2021/08/23 07:58:37;;;;;;;8.03;4.40;;;19.40;99.90;;;;;;4319900;33;20232;-75
2021/08/23 08:01:04;;;;;;;6.80;4.70;;;19.40;99.90;;;;;;4321616;33;20203;-76
2021/08/23 08:03:31;;;;;;;8.30;4.93;;;19.40;99.90;;;;;;4319750;33;20168;-75
2021/08/23 08:05:58;;;;;;;6.97;4.20;;;19.30;99.90;;;;;;4320439;33;20220;-75
2021/08/23 08:08:25;;;;;;;5.97;4.43;;;19.40;99.90;;;;;;4319310;33;20175;-76
2021/08/23 08:10:55;;;;;;;7.27;4.43;;;19.30;99.90;;;;;;4319654;33;20176;-76
2021/08/23 08:13:23;;;;;;;6.50;4.70;;;19.30;99.90;;;;;;4321654;33;20133;-76
2021/08/23 08:15:51;;;;;;;10.13;6.30;;;19.40;99.90;;;;;;4319952;33;20134;-77
2021/08/23 08:18:18;;;;;;;8.47;4.90;;;19.40;99.90;;;;;;4321094;33;20176;-79
2021/08/23 08:20:46;;;;;;;6.57;4.70;;;19.40;99.90;;;;;;4320041;33;20196;-77
2021/08/23 08:23:12;;;;;;;8.10;4.90;;;19.50;99.90;;;;;;4319603;33;20150;-76
2021/08/23 08:25:39;;;;;;;8.37;5.47;;;19.50;99.90;;;;;;4321382;33;20157;-76
2021/08/23 08:28:06;;;;;;;6.80;4.83;;;19.50;99.90;;;;;;4319497;33;20125;-77
2021/08/23 08:30:33;;;;;;;9.57;5.00;;;19.60;99.90;;;;;;4319460;33;20468;-77
2021/08/23 08:33:00;;;;;;;6.70;4.80;;;19.50;99.90;;;;;;4320197;33;20246;-76
2021/08/23 08:35:27;;;;;;;14.57;5.67;;;19.60;99.90;;;;;;4320742;33;20459;-76
2021/08/23 08:37:54;;;;;;;9.33;5.27;;;19.50;99.90;;;;;;4321317;33;20156;-77
2021/08/23 08:40:23;;;;;;;10.63;5.37;;;19.60;99.90;;;;;;4318021;33;20153;-77
2021/08/23 08:42:50;;;;;;;6.10;4.87;;;19.50;99.90;;;;;;4319670;33;20183;-75
2021/08/23 08:45:17;;;;;;;11.80;5.73;;;19.50;99.90;;;;;;4319734;33;20183;-77
2021/08/23 08:47:45;;;;;;;8.33;5.40;;;19.50;99.90;;;;;;4320820;33;20429;-76
2021/08/23 08:50:16;;;;;;;8.83;5.10;;;19.50;99.90;;;;;;4319314;33;20152;-76
2021/08/23 08:52:45;;;;;;;6.53;5.30;;;19.40;99.90;;;;;;4319122;33;20141;-76
2021/08/23 08:55:13;;;;;;;7.10;4.93;;;19.50;99.90;;;;;;4321154;33;20477;-77
2021/08/23 08:57:40;;;;;;;8.13;5.23;;;19.50;99.90;;;;;;4321262;33;20415;-77
2021/08/23 09:00:08;;;;;;;7.60;4.93;;;19.50;99.90;;;;;;4319577;33;20156;-76
2021/08/23 09:02:36;;;;;;;9.53;5.10;;;19.50;99.90;;;;;;4316463;33;20497;-77
2021/08/23 09:05:16;;;;;;;6.33;4.67;;;19.50;99.90;;;;;;4320425;33;20164;-77
2021/08/23 09:07:50;;;;;;;6.50;4.83;;;19.60;99.90;;;;;;4318924;33;20228;-76
2021/08/23 09:10:23;;;;;;;9.37;5.17;;;19.60;99.90;;;;;;4320009;33;20239;-76
2021/08/23 09:13:10;;;;;;;9.63;5.50;;;19.70;99.90;;;;;;4318065;33;20181;-76
2021/08/23 09:15:49;;;;;;;8.00;5.37;;;19.70;99.90;;;;;;4302800;33;20309;-76
2021/08/23 09:18:23;;;;;;;10.50;5.07;;;19.70;99.90;;;;;;4320779;33;20140;-74
2021/08/23 09:20:57;;;;;;;7.80;4.90;;;19.70;99.90;;;;;;4320108;33;20236;-76
2021/08/23 09:23:43;;;;;;;7.37;5.10;;;19.80;99.90;;;;;;4319082;33;20444;-75
2021/08/23 09:26:17;;;;;;;8.67;5.30;;;19.80;99.90;;;;;;4309694;33;20473;-76
2021/08/23 09:29:06;;;;;;;8.70;4.90;;;19.70;99.90;;;;;;4320140;33;20540;-75
2021/08/23 09:31:36;;;;;;;11.03;5.50;;;19.70;99.90;;;;;;4318537;33;20176;-74
2021/08/23 09:34:11;;;;;;;9.27;5.60;;;19.70;99.90;;;;;;4318650;33;20145;-77
2021/08/23 09:36:38;;;;;;;9.50;5.43;;;19.80;99.90;;;;;;4318945;33;20251;-75
2021/08/23 09:39:14;;;;;;;8.53;5.13;;;19.80;99.90;;;;;;4319663;33;20228;-76
2021/08/23 09:41:41;;;;;;;8.47;5.43;;;19.90;99.90;;;;;;4319852;33;20153;-73
2021/08/23 09:44:08;;;;;;;11.83;5.60;;;19.90;99.90;;;;;;4319133;33;20202;-74
2021/08/23 09:46:36;;;;;;;8.57;5.50;;;20.00;99.90;;;;;;4316007;33;20196;-78
2021/08/23 09:49:06;;;;;;;8.57;5.17;;;20.00;99.90;;;;;;4318402;33;20187;-77
2021/08/23 09:51:41;;;;;;;9.90;5.80;;;20.00;99.90;;;;;;4319358;33;20162;-75
2021/08/23 09:54:11;;;;;;;9.07;5.43;;;20.00;99.90;;;;;;4317930;33;20247;-75
2021/08/23 09:56:53;;;;;;;6.47;5.20;;;19.90;99.90;;;;;;4319968;33;20207;-77
2021/08/23 09:59:22;;;;;;;9.03;5.47;;;19.90;99.90;;;;;;4319496;33;20192;-76
2021/08/23 10:01:51;;;;;;;10.10;5.33;;;19.80;99.90;;;;;;4317876;33;20154;-76
2021/08/23 10:04:19;;;;;;;10.27;5.80;;;19.90;99.90;;;;;;4319489;33;20247;-77
2021/08/23 10:06:47;;;;;;;9.23;5.70;;;19.80;99.90;;;;;;4318181;33;20227;-77
2021/08/23 10:09:22;;;;;;;9.07;5.60;;;19.80;99.90;;;;;;4317817;33;20145;-77
2021/08/23 10:11:54;;;;;;;7.40;5.70;;;19.80;99.90;;;;;;4319527;33;20196;-78
2021/08/23 10:14:27;;;;;;;8.17;5.93;;;19.70;99.90;;;;;;4319873;33;20162;-76
2021/08/23 10:16:55;;;;;;;7.60;5.47;;;19.60;99.90;;;;;;4318956;33;20149;-76
2021/08/23 10:19:23;;;;;;;7.73;5.90;;;19.50;99.90;;;;;;4316130;33;20141;-71
2021/08/23 10:21:51;;;;;;;7.70;5.80;;;19.50;99.90;;;;;;4317236;33;20161;-73
2021/08/23 10:24:30;;;;;;;9.13;5.73;;;19.40;99.90;;;;;;4318306;33;20179;-75
2021/08/23 10:26:58;;;;;;;7.53;6.10;;;19.40;99.90;;;;;;4316961;33;20141;-76
2021/08/23 10:29:38;;;;;;;10.87;6.03;;;19.40;99.90;;;;;;4317708;33;20295;-77
2021/08/23 10:32:09;;;;;;;21.80;13.23;;;19.20;99.90;;;;;;4318568;33;20207;-77
2021/08/23 10:34:38;;;;;;;8.73;6.70;;;19.20;99.90;;;;;;4321581;33;20157;-78
2021/08/23 10:37:19;;;;;;;9.83;6.00;;;19.30;99.90;;;;;;4321958;33;20164;-76
2021/08/23 10:39:58;;;;;;;7.90;6.50;;;19.30;99.90;;;;;;4320402;33;20157;-78
2021/08/23 10:42:39;;;;;;;9.10;5.83;;;19.30;99.90;;;;;;4321103;33;20149;-79
2021/08/23 10:45:15;;;;;;;7.00;5.80;;;19.30;99.90;;;;;;4320592;33;20568;-77
2021/08/23 10:47:43;;;;;;;8.67;6.60;;;19.30;99.90;;;;;;4322334;33;20152;-77
2021/08/23 10:50:22;;;;;;;9.93;6.07;;;19.30;99.90;;;;;;4321844;33;20433;-78
2021/08/23 10:52:49;;;;;;;8.40;6.23;;;19.30;99.90;;;;;;4317852;33;20576;-77
2021/08/23 10:55:24;;;;;;;10.00;6.33;;;19.30;99.90;;;;;;4321549;33;20291;-78
2021/08/23 10:58:10;;;;;;;10.60;6.50;;;19.20;99.90;;;;;;4322131;33;20769;-77
2021/08/23 11:00:40;;;;;;;9.87;7.10;;;19.10;99.90;;;;;;4320236;33;20616;-74
2021/08/23 11:03:08;;;;;;;9.87;6.70;;;19.10;99.90;;;;;;4321629;33;20346;-76
2021/08/23 11:05:37;;;;;;;10.37;6.90;;;19.00;99.90;;;;;;4320501;33;20153;-76
2021/08/23 11:08:10;;;;;;;9.33;6.60;;;18.90;99.90;;;;;;4322306;33;20145;-75
2021/08/23 11:10:39;;;;;;;9.67;7.00;;;18.80;99.90;;;;;;4320468;33;20150;-76
2021/08/23 11:13:15;;;;;;;9.00;7.07;;;18.70;99.90;;;;;;4320235;33;20172;-78
2021/08/23 11:15:44;;;;;;;12.47;7.10;;;18.60;99.90;;;;;;4320129;33;20150;-78
2021/08/23 11:18:14;;;;;;;10.10;7.17;;;18.50;99.90;;;;;;4320469;33;20522;-76
2021/08/23 11:20:46;;;;;;;10.03;7.17;;;18.50;99.90;;;;;;4322039;33;20362;-76
2021/08/23 11:23:15;;;;;;;10.17;7.50;;;18.50;99.90;;;;;;4321082;33;20307;-76
2021/08/23 11:25:48;;;;;;;12.13;8.00;;;18.40;99.90;;;;;;4321193;33;20149;-77
2021/08/23 11:28:20;;;;;;;14.83;8.87;;;18.30;99.90;;;;;;4320083;33;20153;-75
2021/08/23 11:30:56;;;;;;;10.20;7.77;;;18.20;99.90;;;;;;4319961;33;20169;-75
2021/08/23 11:33:27;;;;;;;16.53;12.37;;;18.10;99.90;;;;;;4321234;33;20476;-72
2021/08/23 11:35:56;;;;;;;12.73;8.80;;;18.10;99.90;;;;;;4320039;33;20169;-73
2021/08/23 11:38:32;;;;;;;12.47;8.13;;;18.10;99.90;;;;;;4319698;33;20402;-73
2021/08/23 11:41:00;;;;;;;11.90;9.00;;;18.00;99.90;;;;;;4321053;33;20227;-72
2021/08/23 11:43:28;;;;;;;13.13;9.70;;;18.00;99.90;;;;;;4317867;33;20468;-72
2021/08/23 11:45:57;;;;;;;12.70;9.37;;;18.00;99.90;;;;;;4306584;33;20479;-71
2021/08/23 11:48:24;;;;;;;11.50;8.63;;;18.00;99.90;;;;;;4319647;33;20479;-74
2021/08/23 11:50:51;;;;;;;15.83;8.63;;;18.00;99.90;;;;;;4319462;33;20171;-71
2021/08/23 11:53:22;;;;;;;14.50;9.90;;;17.90;99.90;;;;;;4320523;33;20254;-73
2021/08/23 11:55:49;;;;;;;11.77;8.77;;;17.80;99.90;;;;;;4319988;33;20255;-72
2021/08/23 11:58:20;;;;;;;14.83;9.70;;;17.70;99.90;;;;;;4320663;33;20278;-72
2021/08/23 12:01:05;;;;;;;17.80;9.97;;;17.70;99.90;;;;;;4321351;33;20157;-73
2021/08/23 12:03:33;;;;;;;15.23;10.07;;;17.70;99.90;;;;;;4319397;33;20172;-71
2021/08/23 12:06:04;;;;;;;14.63;10.00;;;17.70;99.90;;;;;;4321142;33;20192;-72
2021/08/23 12:08:35;;;;;;;13.00;9.43;;;17.60;99.90;;;;;;4320123;33;20233;-72
2021/08/23 12:11:13;;;;;;;12.27;9.60;;;17.70;99.90;;;;;;4320356;33;20241;-72
2021/08/23 12:13:50;;;;;;;14.07;10.00;;;17.60;99.90;;;;;;4319508;33;20239;-72
2021/08/23 12:16:36;;;;;;;13.50;9.83;;;17.60;99.90;;;;;;4320340;33;20204;-73
2021/08/23 12:19:11;;;;;;;14.30;10.20;;;17.60;99.90;;;;;;4319601;33;20145;-71
2021/08/23 12:21:39;;;;;;;13.30;10.17;;;17.50;99.90;;;;;;4319556;33;20141;-72
2021/08/23 12:24:14;;;;;;;14.80;10.17;;;17.40;99.90;;;;;;4319265;33;20175;-73
2021/08/23 12:27:02;;;;;;;13.27;10.17;;;17.40;99.90;;;;;;4319637;33;20187;-72
2021/08/23 12:29:38;;;;;;;14.30;10.40;;;17.30;99.90;;;;;;4319490;33;20180;-73
2021/08/23 12:32:13;;;;;;;17.13;11.43;;;17.30;99.90;;;;;;4320609;33;20157;-72
2021/08/23 12:34:41;;;;;;;15.57;10.37;;;17.30;99.90;;;;;;4318742;33;20207;-73
2021/08/23 12:37:08;;;;;;;17.13;10.73;;;17.20;99.90;;;;;;4320787;33;20176;-72
2021/08/23 12:39:36;;;;;;;15.57;10.77;;;17.20;99.90;;;;;;4319384;33;20153;-72
2021/08/23 12:42:09;;;;;;;16.13;10.90;;;17.10;99.90;;;;;;4305915;33;20198;-72
2021/08/23 12:44:36;;;;;;;16.83;11.53;;;17.00;99.90;;;;;;4320709;33;20161;-72
2021/08/23 12:47:03;;;;;;;14.30;10.80;;;17.00;99.90;;;;;;4318611;33;20519;-72
2021/08/23 12:49:31;;;;;;;17.90;12.00;;;17.00;99.90;;;;;;4319541;33;20149;-72
2021/08/23 12:52:00;;;;;;;15.37;11.13;;;17.00;99.90;;;;;;4318916;33;20160;-71
2021/08/23 12:54:28;;;;;;;14.87;11.20;;;17.00;99.90;;;;;;4320256;33;20145;-72